Time;durP1;ratioP1;P1;durP2;ratioP2;P2;SDS_P1;SDS_P2;PMS_P1;PMS_P2;Temp;Humidity;BMP_temperature;BMP_pressure;BME280_temperature;BME280_humidity;BME280_pressure;Samples;Min_cycle;Max_cycle;Signal;HPM_P1;HPM_P2
2021/12/23 00:01:41;;;;;;;201.00;126.65;;;9.60;93.40;;;;;;5053330;28;20302;-71
2021/12/23 00:04:46;;;;;;;196.32;124.25;;;9.70;93.70;;;;;;5053562;28;20071;-71
2021/12/23 00:07:50;;;;;;;190.05;121.00;;;9.70;93.60;;;;;;5053501;28;20508;-71
2021/12/23 00:10:54;;;;;;;191.25;127.00;;;9.70;93.70;;;;;;5053164;28;20048;-71
2021/12/23 00:14:09;;;;;;;191.20;125.15;;;9.70;93.60;;;;;;5053909;28;20052;-71
2021/12/23 00:23:28;;;;;;;199.90;127.10;;;9.40;94.20;;;;;;5053069;28;20501;-71
2021/12/23 00:26:32;;;;;;;189.02;126.03;;;9.40;94.30;;;;;;5053081;28;20064;-71
2021/12/23 00:29:39;;;;;;;202.68;127.43;;;9.30;94.40;;;;;;5040432;28;20104;-70
2021/12/23 00:32:43;;;;;;;194.48;127.55;;;9.30;94.60;;;;;;5052963;28;20052;-71
2021/12/23 00:35:48;;;;;;;186.75;123.85;;;9.30;94.60;;;;;;5052794;28;20138;-71
2021/12/23 00:38:55;;;;;;;205.32;123.97;;;9.30;94.40;;;;;;5052835;28;20056;-71
2021/12/23 00:42:06;;;;;;;194.02;125.13;;;9.30;94.50;;;;;;5052560;28;20052;-71
2021/12/23 00:45:10;;;;;;;194.45;126.43;;;9.30;94.50;;;;;;5052417;28;20393;-71
2021/12/23 00:48:15;;;;;;;195.60;126.13;;;9.40;94.60;;;;;;5052740;28;20499;-71
2021/12/23 00:51:20;;;;;;;191.20;124.18;;;9.40;94.60;;;;;;5052690;28;20047;-71
2021/12/23 00:54:23;;;;;;;192.95;124.57;;;9.40;94.70;;;;;;5052746;28;20503;-71
2021/12/23 00:57:29;;;;;;;190.02;125.93;;;9.40;95.10;;;;;;5052236;28;20064;-69
2021/12/23 01:00:34;;;;;;;187.20;121.30;;;9.40;94.80;;;;;;5052376;28;20072;-71
2021/12/23 01:03:38;;;;;;;192.63;124.53;;;9.40;94.80;;;;;;5052204;28;20044;-71
2021/12/23 01:06:42;;;;;;;180.77;121.63;;;9.30;94.70;;;;;;5052318;28;20393;-71
2021/12/23 01:09:47;;;;;;;184.70;120.25;;;9.30;94.80;;;;;;5052302;28;20063;-71
2021/12/23 01:12:57;;;;;;;173.05;118.28;;;9.30;94.60;;;;;;5052338;28;20049;-70
2021/12/23 01:16:04;;;;;;;177.60;117.80;;;9.10;94.40;;;;;;5052172;28;20488;-71
2021/12/23 01:19:12;;;;;;;182.38;114.70;;;9.00;94.60;;;;;;5052067;28;20299;-71
2021/12/23 01:22:16;;;;;;;166.25;112.22;;;8.90;94.80;;;;;;5051939;28;20397;-71
2021/12/23 01:25:20;;;;;;;159.43;103.78;;;8.80;94.90;;;;;;5051710;28;20036;-71
2021/12/23 01:28:26;;;;;;;142.85;93.22;;;8.70;95.00;;;;;;5052022;28;20040;-71
2021/12/23 01:31:32;;;;;;;159.90;101.88;;;8.60;95.10;;;;;;5051654;28;20044;-71
2021/12/23 01:34:36;;;;;;;153.15;100.25;;;8.60;95.30;;;;;;5051494;28;20048;-71
2021/12/23 01:37:40;;;;;;;155.60;100.88;;;8.60;95.30;;;;;;5051361;28;20048;-71
2021/12/23 01:40:46;;;;;;;153.10;101.65;;;8.60;95.20;;;;;;5050539;28;20056;-71
2021/12/23 01:43:51;;;;;;;153.00;99.82;;;8.70;95.20;;;;;;5051502;28;20048;-71
2021/12/23 01:46:56;;;;;;;149.05;98.65;;;8.60;95.10;;;;;;5051259;28;20048;-69
2021/12/23 01:50:00;;;;;;;150.40;99.40;;;8.60;95.10;;;;;;5051260;28;20067;-71
2021/12/23 01:53:04;;;;;;;153.32;95.25;;;8.50;95.10;;;;;;5051437;28;20048;-71
2021/12/23 01:56:09;;;;;;;142.77;94.95;;;8.40;95.20;;;;;;5051352;28;20052;-71
2021/12/23 01:59:14;;;;;;;153.05;99.15;;;8.40;95.40;;;;;;5051127;28;20039;-71
2021/12/23 02:02:18;;;;;;;143.80;94.95;;;8.30;95.30;;;;;;5051309;28;20060;-69
2021/12/23 02:05:23;;;;;;;148.90;96.15;;;8.20;95.50;;;;;;5051219;28;20072;-71
2021/12/23 02:08:27;;;;;;;151.57;95.60;;;8.20;95.60;;;;;;5051033;28;20040;-71
2021/12/23 02:11:31;;;;;;;147.85;96.07;;;8.20;95.80;;;;;;5051501;28;20056;-71
2021/12/23 02:14:35;;;;;;;141.25;92.70;;;8.20;95.60;;;;;;5050372;28;20609;-71
2021/12/23 02:17:39;;;;;;;131.48;87.90;;;8.20;95.30;;;;;;5051217;28;20052;-71
2021/12/23 02:20:43;;;;;;;129.80;82.68;;;8.10;95.10;;;;;;5050933;28;20555;-70
2021/12/23 02:23:48;;;;;;;128.68;80.82;;;8.00;95.10;;;;;;5051144;28;20524;-71
2021/12/23 02:26:52;;;;;;;124.65;79.88;;;8.00;95.10;;;;;;5050745;28;20059;-71
2021/12/23 02:29:56;;;;;;;117.47;75.72;;;7.90;95.30;;;;;;5051032;28;20068;-71
2021/12/23 02:33:00;;;;;;;125.75;75.28;;;7.90;95.60;;;;;;5051024;28;20044;-71
2021/12/23 02:36:05;;;;;;;117.07;68.35;;;7.90;95.80;;;;;;5050890;28;20206;-71
2021/12/23 02:39:09;;;;;;;111.72;69.97;;;8.00;95.60;;;;;;5050730;28;20052;-71
2021/12/23 02:42:12;;;;;;;102.20;66.00;;;8.00;95.20;;;;;;5050653;28;20110;-71
2021/12/23 02:45:17;;;;;;;107.63;67.40;;;8.00;95.30;;;;;;5050469;28;20040;-70
2021/12/23 02:48:25;;;;;;;100.57;65.22;;;8.00;95.30;;;;;;5050957;28;20527;-71
2021/12/23 02:51:28;;;;;;;109.32;62.95;;;8.00;95.30;;;;;;5050889;28;20060;-71
2021/12/23 02:54:33;;;;;;;108.20;60.53;;;7.90;95.10;;;;;;5054919;28;20043;-69
2021/12/23 02:57:36;;;;;;;90.82;53.13;;;7.80;95.30;;;;;;5054881;28;20048;-69
2021/12/23 03:00:44;;;;;;;90.28;55.17;;;7.80;95.30;;;;;;5054552;28;20075;-71
2021/12/23 03:03:48;;;;;;;76.40;48.35;;;7.80;94.90;;;;;;5054728;28;20064;-71
2021/12/23 03:06:56;;;;;;;91.35;49.60;;;7.80;94.90;;;;;;5054561;28;20111;-70
2021/12/23 03:10:03;;;;;;;73.63;43.92;;;7.70;95.00;;;;;;5054234;28;20043;-71
2021/12/23 03:13:07;;;;;;;85.50;46.40;;;7.60;95.20;;;;;;5054640;28;20047;-71
2021/12/23 03:16:13;;;;;;;71.65;45.05;;;7.50;95.30;;;;;;5054212;28;20052;-71
2021/12/23 03:19:17;;;;;;;79.05;46.22;;;7.60;95.80;;;;;;5054428;28;20048;-71
2021/12/23 03:22:21;;;;;;;72.88;42.63;;;7.70;95.40;;;;;;5054443;28;20060;-71
2021/12/23 03:25:25;;;;;;;75.68;40.90;;;7.60;95.30;;;;;;5054320;28;20040;-69
2021/12/23 03:28:29;;;;;;;74.78;40.45;;;7.70;95.30;;;;;;5054244;28;20051;-71
2021/12/23 03:31:33;;;;;;;64.22;38.80;;;7.70;95.20;;;;;;5053963;28;20048;-71
2021/12/23 03:34:37;;;;;;;64.75;38.65;;;7.70;94.90;;;;;;5053967;28;20052;-70
2021/12/23 03:37:41;;;;;;;64.93;37.20;;;7.70;95.20;;;;;;5054137;28;20040;-71
2021/12/23 03:40:46;;;;;;;63.55;38.55;;;7.60;94.70;;;;;;5053903;28;20302;-69
2021/12/23 03:43:51;;;;;;;66.88;38.72;;;7.50;94.70;;;;;;5053837;28;20052;-70
2021/12/23 03:46:55;;;;;;;60.85;37.60;;;7.40;94.90;;;;;;5053998;28;20052;-71
2021/12/23 03:49:59;;;;;;;65.97;37.35;;;7.40;95.20;;;;;;5053142;28;20040;-71
2021/12/23 03:53:03;;;;;;;61.33;36.80;;;7.40;95.20;;;;;;5053906;28;20519;-71
2021/12/23 03:56:07;;;;;;;55.60;33.53;;;7.30;95.30;;;;;;5053780;28;20044;-71
2021/12/23 03:59:11;;;;;;;58.58;33.15;;;7.30;95.10;;;;;;5053457;28;20064;-71
2021/12/23 04:02:16;;;;;;;58.00;32.10;;;7.20;95.20;;;;;;5053179;28;20155;-71
2021/12/23 04:05:19;;;;;;;56.38;31.95;;;7.20;95.20;;;;;;5052588;28;20040;-71
2021/12/23 04:08:23;;;;;;;55.63;32.28;;;7.30;95.10;;;;;;5053590;28;20048;-71
2021/12/23 04:11:27;;;;;;;54.20;31.75;;;7.20;95.00;;;;;;5053973;28;20295;-71
2021/12/23 04:14:31;;;;;;;55.65;34.30;;;7.20;95.00;;;;;;5052536;28;20393;-71
2021/12/23 04:17:36;;;;;;;60.17;35.00;;;7.20;95.20;;;;;;5053234;28;20040;-71
2021/12/23 04:20:53;;;;;;;53.15;32.10;;;7.10;95.40;;;;;;5053032;28;20052;-70
2021/12/23 04:23:57;;;;;;;60.17;32.28;;;7.10;95.60;;;;;;5053041;28;20043;-69
2021/12/23 04:27:01;;;;;;;56.00;31.02;;;7.20;95.70;;;;;;5053389;28;20048;-71
2021/12/23 04:30:07;;;;;;;54.50;33.17;;;7.30;95.20;;;;;;5052944;28;20040;-71
2021/12/23 04:33:12;;;;;;;50.42;31.13;;;7.30;95.20;;;;;;5053090;28;20051;-71
2021/12/23 04:36:17;;;;;;;49.45;31.35;;;7.40;95.30;;;;;;5052777;28;20056;-71
2021/12/23 04:39:21;;;;;;;52.35;30.73;;;7.40;95.10;;;;;;5052889;28;20491;-70
2021/12/23 04:42:25;;;;;;;54.50;31.45;;;7.30;95.10;;;;;;5052630;28;20060;-71
2021/12/23 04:45:30;;;;;;;57.70;32.17;;;7.30;95.20;;;;;;5052638;28;20048;-71
2021/12/23 04:48:35;;;;;;;49.50;30.98;;;7.30;95.40;;;;;;5052176;28;20424;-71
2021/12/23 04:51:39;;;;;;;54.67;32.97;;;7.40;95.40;;;;;;5052770;28;20067;-71
2021/12/23 04:54:43;;;;;;;56.05;33.30;;;7.50;95.20;;;;;;5052161;28;20040;-71
2021/12/23 04:57:47;;;;;;;53.13;33.03;;;7.50;95.20;;;;;;5052358;28;20400;-71
2021/12/23 05:00:52;;;;;;;58.97;35.03;;;7.50;95.10;;;;;;5051575;28;20079;-71
2021/12/23 05:03:56;;;;;;;62.53;35.72;;;7.50;95.20;;;;;;5051269;28;20036;-71
2021/12/23 05:07:00;;;;;;;59.38;32.80;;;7.50;95.30;;;;;;5051941;28;20048;-71
2021/12/23 05:10:07;;;;;;;60.20;35.00;;;7.50;95.40;;;;;;5051710;28;20040;-71
2021/12/23 05:13:12;;;;;;;62.35;33.88;;;7.60;95.20;;;;;;5052126;28;20385;-71
2021/12/23 05:16:17;;;;;;;63.50;35.80;;;7.50;95.00;;;;;;5050796;28;20412;-71
2021/12/23 05:19:21;;;;;;;69.82;38.45;;;7.50;95.40;;;;;;5051760;28;20496;-71
2021/12/23 05:22:25;;;;;;;65.93;39.10;;;7.50;95.50;;;;;;5051546;28;20107;-71
2021/12/23 05:25:29;;;;;;;61.22;37.67;;;7.50;95.60;;;;;;5051416;28;20389;-71
2021/12/23 05:28:33;;;;;;;61.45;36.13;;;7.60;95.70;;;;;;5051830;28;20060;-71
2021/12/23 05:31:39;;;;;;;65.22;37.38;;;7.70;95.80;;;;;;5051901;28;20040;-71
2021/12/23 05:34:42;;;;;;;63.22;36.60;;;7.70;95.70;;;;;;5051457;28;20063;-71
2021/12/23 05:37:47;;;;;;;66.65;39.25;;;7.60;95.70;;;;;;5051851;28;20512;-71
2021/12/23 05:40:51;;;;;;;70.70;41.70;;;7.70;96.00;;;;;;5051938;28;20295;-71
2021/12/23 05:43:56;;;;;;;78.63;48.72;;;7.70;96.00;;;;;;5051754;28;20044;-71
2021/12/23 05:47:00;;;;;;;74.40;41.85;;;7.80;96.20;;;;;;5051198;28;20048;-71
2021/12/23 05:50:06;;;;;;;76.20;45.13;;;7.70;96.00;;;;;;5051766;28;20044;-70
2021/12/23 05:53:10;;;;;;;72.60;44.42;;;7.70;95.90;;;;;;5050546;28;20040;-71
2021/12/23 05:56:15;;;;;;;68.75;44.33;;;7.70;96.10;;;;;;5051169;28;20048;-71
2021/12/23 05:59:18;;;;;;;71.00;42.33;;;7.70;96.10;;;;;;5051319;28;20388;-71
2021/12/23 06:02:22;;;;;;;77.57;45.50;;;7.70;96.20;;;;;;5051153;28;20063;-71
2021/12/23 06:05:27;;;;;;;73.80;45.33;;;7.80;96.20;;;;;;5050926;28;20044;-71
2021/12/23 06:08:31;;;;;;;78.35;49.55;;;7.70;96.10;;;;;;5051143;28;20048;-71
2021/12/23 06:11:35;;;;;;;74.05;43.50;;;7.70;96.30;;;;;;5051021;28;20147;-71
2021/12/23 06:14:39;;;;;;;66.18;39.97;;;7.70;96.20;;;;;;5050674;28;20040;-71
2021/12/23 06:17:44;;;;;;;72.97;42.95;;;7.80;95.90;;;;;;5051093;28;20047;-71
2021/12/23 06:20:48;;;;;;;71.28;42.83;;;7.80;95.50;;;;;;5050121;28;20044;-71
2021/12/23 06:23:52;;;;;;;74.22;45.30;;;7.80;95.40;;;;;;5038656;28;20035;-71
2021/12/23 06:26:57;;;;;;;76.05;45.03;;;7.70;95.50;;;;;;5050177;28;20044;-71
2021/12/23 06:30:01;;;;;;;89.53;49.65;;;7.50;95.80;;;;;;5050928;28;20055;-71
2021/12/23 06:33:05;;;;;;;88.47;50.42;;;7.40;96.20;;;;;;5050812;28;20048;-71
2021/12/23 06:36:09;;;;;;;85.28;49.42;;;7.40;96.60;;;;;;5050437;28;20052;-73
2021/12/23 06:39:15;;;;;;;88.55;51.08;;;7.40;96.50;;;;;;5050752;28;20044;-69
2021/12/23 06:42:22;;;;;;;84.10;49.78;;;7.40;96.90;;;;;;5050606;28;20532;-69
2021/12/23 06:45:27;;;;;;;76.65;46.80;;;7.50;96.80;;;;;;5050581;28;20040;-68
2021/12/23 06:48:32;;;;;;;76.75;47.05;;;7.50;96.30;;;;;;5050496;28;20048;-69
2021/12/23 06:51:36;;;;;;;99.63;52.00;;;7.50;96.10;;;;;;5050637;28;20044;-69
2021/12/23 06:54:45;;;;;;;98.65;49.83;;;7.50;96.10;;;;;;5050249;28;20043;-69
2021/12/23 06:57:55;;;;;;;86.82;47.15;;;7.50;96.00;;;;;;5050552;28;20044;-69
2021/12/23 07:00:59;;;;;;;91.95;49.95;;;7.60;95.90;;;;;;5050367;28;20048;-69
2021/12/23 07:04:39;;;;;;;89.47;49.03;;;7.60;95.90;;;;;;5050079;28;20326;-68
2021/12/23 07:07:41;;;;;;;86.25;50.35;;;7.90;96.00;;;;;;5050087;28;20124;-68
2021/12/23 07:10:46;;;;;;;78.10;49.97;;;7.60;95.90;;;;;;5050337;28;20112;-68
2021/12/23 07:13:50;;;;;;;312.38;79.60;;;7.70;96.20;;;;;;5050619;28;20044;-70
2021/12/23 07:16:54;;;;;;;305.17;76.55;;;7.80;96.60;;;;;;5050922;28;20064;-66
2021/12/23 07:19:58;;;;;;;136.77;75.05;;;8.00;96.60;;;;;;5049294;28;20107;-65
2021/12/23 07:23:02;;;;;;;128.60;73.35;;;8.20;96.40;;;;;;5049995;28;20056;-65
2021/12/23 07:26:06;;;;;;;131.55;74.32;;;8.20;96.60;;;;;;5050283;28;20476;-65
2021/12/23 07:29:10;;;;;;;119.28;73.72;;;8.40;97.00;;;;;;5050340;28;20056;-65
2021/12/23 07:32:14;;;;;;;121.70;75.47;;;8.40;97.00;;;;;;5050069;28;20040;-65
2021/12/23 07:35:19;;;;;;;132.90;76.50;;;8.40;96.50;;;;;;5050128;28;20076;-65
2021/12/23 07:38:23;;;;;;;107.35;68.05;;;8.50;96.50;;;;;;5050163;28;20044;-65
2021/12/23 07:41:27;;;;;;;111.45;64.43;;;8.60;96.20;;;;;;5053968;28;20060;-65
2021/12/23 07:44:31;;;;;;;94.00;59.88;;;8.70;95.60;;;;;;5053976;28;20044;-65
2021/12/23 07:47:36;;;;;;;99.95;59.67;;;8.70;95.20;;;;;;5053599;28;20393;-65
2021/12/23 07:50:41;;;;;;;99.07;58.95;;;8.70;94.90;;;;;;5053812;28;20044;-65
2021/12/23 07:53:45;;;;;;;100.72;62.22;;;8.80;94.80;;;;;;5053592;28;20420;-65
2021/12/23 07:56:49;;;;;;;102.38;59.75;;;8.90;94.80;;;;;;5053870;28;20044;-64
2021/12/23 07:59:53;;;;;;;92.80;55.22;;;8.90;94.60;;;;;;5054063;28;20504;-66
2021/12/23 08:02:57;;;;;;;90.20;55.35;;;9.00;94.40;;;;;;5053376;28;20507;-65
2021/12/23 08:06:01;;;;;;;94.85;55.92;;;9.10;94.40;;;;;;5053459;28;20495;-64
2021/12/23 08:09:05;;;;;;;89.28;51.05;;;9.10;94.30;;;;;;5053237;28;20056;-66
2021/12/23 08:12:10;;;;;;;76.70;44.08;;;9.30;94.20;;;;;;5053386;28;20039;-66
2021/12/23 08:15:14;;;;;;;70.75;41.17;;;9.30;93.90;;;;;;5052992;28;20060;-66
2021/12/23 08:18:18;;;;;;;72.47;40.80;;;9.40;93.40;;;;;;5053526;28;20052;-64
2021/12/23 08:21:26;;;;;;;67.15;39.65;;;9.50;93.20;;;;;;5053016;28;20064;-64
2021/12/23 08:24:30;;;;;;;77.03;41.03;;;9.50;93.00;;;;;;5052846;28;20048;-64
2021/12/23 08:27:35;;;;;;;69.65;42.28;;;9.70;92.90;;;;;;5053124;28;20044;-63
2021/12/23 08:30:40;;;;;;;57.42;37.72;;;9.80;92.80;;;;;;5052612;28;20044;-66
2021/12/23 08:33:44;;;;;;;61.53;38.40;;;10.00;92.70;;;;;;5052357;28;20052;-64
2021/12/23 08:36:47;;;;;;;62.33;39.47;;;10.20;92.50;;;;;;5052723;28;20048;-67
2021/12/23 08:39:53;;;;;;;56.90;36.92;;;10.40;92.20;;;;;;5052623;28;20040;-66
2021/12/23 08:42:58;;;;;;;68.88;44.38;;;10.50;92.00;;;;;;5052716;28;20059;-67
2021/12/23 08:46:03;;;;;;;72.75;47.92;;;10.80;92.00;;;;;;5052604;28;20040;-67
2021/12/23 08:49:07;;;;;;;67.68;41.83;;;11.00;91.80;;;;;;5052530;28;20055;-68
2021/12/23 08:52:12;;;;;;;64.15;40.85;;;11.30;91.60;;;;;;5052018;28;20040;-67
2021/12/23 08:55:17;;;;;;;73.38;43.13;;;11.40;91.40;;;;;;5051967;28;20064;-66
2021/12/23 08:58:21;;;;;;;72.38;42.92;;;11.60;90.90;;;;;;5052228;28;20044;-67
2021/12/23 09:01:25;;;;;;;69.40;44.75;;;11.70;89.50;;;;;;5052136;28;20048;-68
2021/12/23 09:04:29;;;;;;;64.95;41.53;;;11.80;89.40;;;;;;5051882;28;20044;-68
2021/12/23 09:07:33;;;;;;;61.17;40.47;;;11.90;90.00;;;;;;5051643;28;20048;-68
2021/12/23 09:10:38;;;;;;;60.67;40.22;;;12.10;89.60;;;;;;5051712;28;20048;-68
2021/12/23 09:13:42;;;;;;;58.47;38.97;;;12.30;88.80;;;;;;5051868;28;20052;-68
2021/12/23 09:16:45;;;;;;;68.70;39.28;;;12.40;88.10;;;;;;5052112;28;20404;-68
2021/12/23 09:19:49;;;;;;;63.15;39.55;;;12.60;87.00;;;;;;5052133;28;20063;-68
2021/12/23 09:22:53;;;;;;;52.75;37.38;;;12.70;85.60;;;;;;5051634;28;20060;-69
2021/12/23 09:25:57;;;;;;;72.78;43.67;;;12.80;85.10;;;;;;5051462;28;20147;-68
2021/12/23 09:29:11;;;;;;;58.08;40.03;;;12.90;85.40;;;;;;5051274;28;20060;-68
2021/12/23 09:35:39;;;;;;;57.63;37.38;;;13.20;84.50;;;;;;5051151;28;20524;-68
2021/12/23 09:38:44;;;;;;;57.15;38.10;;;13.30;83.40;;;;;;5050333;28;20048;-68
2021/12/23 09:41:48;;;;;;;57.63;36.72;;;13.40;83.20;;;;;;5051317;28;20057;-68
2021/12/23 09:44:59;;;;;;;62.72;40.70;;;13.60;82.70;;;;;;5051349;28;20044;-68
2021/12/23 09:48:04;;;;;;;58.13;39.30;;;13.80;82.30;;;;;;5051075;28;20060;-68
2021/12/23 09:51:11;;;;;;;61.45;39.38;;;14.00;82.20;;;;;;5051476;28;20040;-67
2021/12/23 09:54:18;;;;;;;59.88;39.83;;;14.10;80.90;;;;;;5051104;28;20394;-68
2021/12/23 09:57:23;;;;;;;62.13;40.55;;;14.20;80.40;;;;;;5038602;28;20044;-68
2021/12/23 10:00:31;;;;;;;66.20;42.45;;;14.40;80.60;;;;;;5051192;28;20505;-68
2021/12/23 10:03:37;;;;;;;59.58;40.75;;;14.50;80.30;;;;;;5051130;28;20511;-68
2021/12/23 10:06:41;;;;;;;59.17;40.92;;;14.60;80.70;;;;;;5050223;28;20055;-68
2021/12/23 10:10:03;;;;;;;55.88;38.88;;;14.70;79.90;;;;;;5049893;28;20060;-69
2021/12/23 10:37:16;;;;;;;58.28;38.55;;;15.50;77.20;;;;;;5043880;28;20056;-66
2021/12/23 10:40:20;;;;;;;51.65;35.35;;;15.60;75.90;;;;;;5050424;28;20103;-66
2021/12/23 10:43:27;;;;;;;62.70;37.67;;;15.60;76.20;;;;;;5050683;28;20120;-66
2021/12/23 10:46:34;;;;;;;50.40;36.05;;;15.70;76.00;;;;;;5050469;28;20055;-67
2021/12/23 10:49:51;;;;;;;48.70;34.53;;;15.70;76.40;;;;;;5050326;28;20409;-66
2021/12/23 10:53:08;;;;;;;40.13;28.88;;;15.80;76.80;;;;;;5050401;28;20040;-67
2021/12/23 10:59:34;;;;;;;37.53;26.35;;;15.90;76.40;;;;;;5050368;28;20052;-67
2021/12/23 11:02:40;;;;;;;36.85;25.95;;;16.00;76.60;;;;;;5050204;28;20060;-66
2021/12/23 11:05:56;;;;;;;34.90;25.30;;;16.00;76.60;;;;;;5050134;28;20067;-67
2021/12/23 11:09:34;;;;;;;43.70;25.10;;;15.90;76.80;;;;;;5050308;28;20039;-67
2021/12/23 11:36:55;;;;;;;33.95;20.98;;;15.80;82.70;;;;;;5053768;28;20511;-66
2021/12/23 11:40:27;;;;;;;29.10;19.15;;;15.70;82.60;;;;;;5052532;28;20040;-66
2021/12/23 11:43:54;;;;;;;30.42;19.67;;;15.70;83.60;;;;;;5053399;28;20064;-65
2021/12/23 11:46:57;;;;;;;25.30;16.77;;;15.60;84.20;;;;;;5053672;28;20476;-68
2021/12/23 11:50:03;;;;;;;23.52;15.63;;;15.50;84.30;;;;;;5053365;28;20104;-68
2021/12/23 11:53:08;;;;;;;24.65;17.52;;;15.40;84.60;;;;;;5052848;28;20048;-68
2021/12/23 11:56:13;;;;;;;30.33;16.75;;;15.40;85.00;;;;;;5052879;28;20056;-68
2021/12/23 11:59:19;;;;;;;26.38;16.98;;;15.30;85.20;;;;;;5053627;28;20389;-68
2021/12/23 12:02:24;;;;;;;23.95;15.73;;;15.30;85.30;;;;;;5053164;28;20412;-68
2021/12/23 12:05:29;;;;;;;18.17;13.65;;;15.30;85.60;;;;;;5053349;28;20112;-68
2021/12/23 12:08:34;;;;;;;13.32;10.65;;;15.30;85.60;;;;;;5052402;28;20067;-68
2021/12/23 12:11:38;;;;;;;14.77;10.30;;;15.30;86.00;;;;;;5053441;28;20048;-68
2021/12/23 12:14:45;;;;;;;16.48;11.13;;;15.30;85.50;;;;;;5052082;28;20436;-68
2021/12/23 12:18:02;;;;;;;16.13;11.18;;;15.20;85.70;;;;;;5053065;28;20504;-67
2021/12/23 12:21:24;;;;;;;22.73;14.52;;;15.20;85.80;;;;;;5053437;28;20040;-67
2021/12/23 12:24:46;;;;;;;20.35;13.07;;;15.20;86.20;;;;;;5051801;28;20052;-68
2021/12/23 12:27:53;;;;;;;16.67;11.52;;;15.10;86.50;;;;;;5052526;28;20048;-68
2021/12/23 12:31:00;;;;;;;18.95;12.20;;;15.10;86.70;;;;;;5052845;28;20036;-66
2021/12/23 12:34:10;;;;;;;20.98;13.35;;;15.10;87.00;;;;;;5052693;28;20500;-67
2021/12/23 12:37:14;;;;;;;17.70;11.48;;;15.20;87.00;;;;;;5052304;28;20072;-67
2021/12/23 12:40:18;;;;;;;20.58;11.60;;;15.20;86.10;;;;;;5053024;28;20047;-67
2021/12/23 12:43:52;;;;;;;13.45;10.82;;;15.10;85.70;;;;;;5051386;28;20059;-68
2021/12/23 12:47:08;;;;;;;16.70;10.52;;;15.10;86.00;;;;;;5052838;28;20044;-67
2021/12/23 12:50:18;;;;;;;22.48;12.70;;;15.10;86.40;;;;;;5052778;28;20385;-67
2021/12/23 12:53:22;;;;;;;16.42;11.02;;;15.10;86.70;;;;;;5052492;28;20507;-67
2021/12/23 12:56:26;;;;;;;19.58;11.10;;;15.10;86.60;;;;;;5052297;28;20036;-67
2021/12/23 12:59:36;;;;;;;22.88;11.95;;;15.20;86.50;;;;;;5052645;28;20052;-67
2021/12/23 13:02:40;;;;;;;17.27;9.30;;;15.20;86.50;;;;;;5052229;28;20507;-67
2021/12/23 13:05:49;;;;;;;20.10;9.70;;;15.20;86.20;;;;;;5052416;28;20052;-67
2021/12/23 13:09:04;;;;;;;15.18;9.27;;;15.10;86.00;;;;;;5052449;28;20040;-67
2021/12/23 13:12:49;;;;;;;15.43;9.23;;;15.10;86.10;;;;;;5053821;28;20044;-67
2021/12/23 13:16:26;;;;;;;13.95;8.27;;;15.00;86.50;;;;;;5050859;28;20040;-67
2021/12/23 13:19:34;;;;;;;13.75;8.95;;;15.00;87.10;;;;;;5051767;28;20596;-67
2021/12/23 13:22:39;;;;;;;16.15;8.88;;;14.90;87.50;;;;;;5051846;28;20075;-67
2021/12/23 13:25:53;;;;;;;13.50;7.80;;;14.80;88.50;;;;;;5051443;28;20043;-67
2021/12/23 13:29:00;;;;;;;12.40;7.22;;;14.80;88.70;;;;;;5051711;28;20048;-67
2021/12/23 13:32:05;;;;;;;14.27;8.32;;;14.70;88.80;;;;;;5051883;28;20052;-66
2021/12/23 13:35:18;;;;;;;18.52;10.35;;;14.60;89.00;;;;;;5050292;28;20056;-67
2021/12/23 13:38:41;;;;;;;13.65;9.48;;;14.60;89.50;;;;;;5050784;28;20036;-67
2021/12/23 13:41:46;;;;;;;28.70;14.57;;;14.50;89.90;;;;;;5051209;28;20100;-67
2021/12/23 13:44:51;;;;;;;25.70;12.95;;;14.40;90.10;;;;;;5051515;28;20059;-66
2021/12/23 13:47:58;;;;;;;23.55;15.13;;;14.50;90.30;;;;;;5051570;28;20380;-67
2021/12/23 13:51:03;;;;;;;25.65;17.30;;;14.40;90.50;;;;;;5051290;28;20040;-67
2021/12/23 13:54:15;;;;;;;23.20;13.30;;;14.40;90.40;;;;;;5051428;28;20052;-67
2021/12/23 13:57:22;;;;;;;19.05;10.75;;;14.40;90.50;;;;;;5051144;28;20048;-67
2021/12/23 14:00:30;;;;;;;17.08;11.68;;;14.40;90.60;;;;;;5051504;28;20119;-67
2021/12/23 14:03:34;;;;;;;23.38;12.20;;;14.40;90.70;;;;;;5050983;28;20059;-67
2021/12/23 14:06:39;;;;;;;16.65;11.60;;;14.30;90.80;;;;;;5050349;28;20048;-67
2021/12/23 14:09:50;;;;;;;20.60;11.75;;;14.30;90.90;;;;;;5051012;28;20052;-67
2021/12/23 14:13:01;;;;;;;27.77;12.30;;;14.30;91.10;;;;;;5051353;28;20052;-67
2021/12/23 14:16:10;;;;;;;16.05;10.07;;;14.20;91.40;;;;;;5049973;28;20271;-66
2021/12/23 14:19:48;;;;;;;21.42;14.07;;;14.20;91.50;;;;;;5049983;28;20040;-67
2021/12/23 14:23:12;;;;;;;30.00;19.27;;;14.20;91.80;;;;;;5050837;28;20507;-67
2021/12/23 14:26:17;;;;;;;24.52;16.30;;;14.20;92.00;;;;;;5050455;28;20059;-67
2021/12/23 14:29:23;;;;;;;22.63;12.90;;;14.10;92.10;;;;;;5050589;28;20393;-67
2021/12/23 14:32:27;;;;;;;21.80;16.60;;;14.10;92.30;;;;;;5050460;28;20393;-67
2021/12/23 14:35:31;;;;;;;26.20;18.20;;;14.00;92.20;;;;;;5049574;28;20056;-67
2021/12/23 14:38:41;;;;;;;29.13;20.17;;;14.00;92.20;;;;;;5050522;28;20299;-67
2021/12/23 14:41:49;;;;;;;53.17;28.92;;;14.00;92.30;;;;;;5051082;28;20059;-67
2021/12/23 14:45:03;;;;;;;48.05;31.73;;;14.00;91.60;;;;;;5050477;28;20052;-67
2021/12/23 14:48:12;;;;;;;54.95;33.05;;;13.90;90.60;;;;;;5052893;28;20044;-67
2021/12/23 14:51:25;;;;;;;57.50;36.85;;;13.90;90.40;;;;;;5056870;28;20048;-67
2021/12/23 14:54:29;;;;;;;55.92;35.15;;;13.80;90.20;;;;;;5057325;28;20337;-67
2021/12/23 14:57:57;;;;;;;74.90;42.00;;;13.80;90.40;;;;;;5057256;28;20044;-66
2021/12/23 15:01:00;;;;;;;67.75;39.83;;;13.80;90.50;;;;;;5057086;28;20512;-67
2021/12/23 15:04:05;;;;;;;83.93;44.65;;;13.80;90.60;;;;;;5056946;28;20496;-67
2021/12/23 15:07:11;;;;;;;76.75;46.47;;;13.80;90.70;;;;;;5056901;28;20504;-67
2021/12/23 15:10:31;;;;;;;81.40;44.45;;;13.80;90.90;;;;;;5056938;28;20511;-66
2021/12/23 15:13:45;;;;;;;79.40;40.40;;;13.80;91.00;;;;;;5057134;28;20043;-66
2021/12/23 15:17:10;;;;;;;59.67;37.30;;;13.70;91.20;;;;;;5056983;28;20044;-66
2021/12/23 15:20:31;;;;;;;60.40;37.63;;;13.70;91.40;;;;;;5056686;28;20043;-67
2021/12/23 15:23:39;;;;;;;62.40;37.00;;;13.70;91.50;;;;;;5056860;28;20056;-67
2021/12/23 15:26:53;;;;;;;66.25;37.70;;;13.70;91.40;;;;;;5056753;28;20040;-67
2021/12/23 15:30:01;;;;;;;65.82;37.58;;;13.70;91.50;;;;;;5056783;28;20064;-67
2021/12/23 15:33:05;;;;;;;73.10;37.25;;;13.60;91.70;;;;;;5055976;28;20052;-67
2021/12/23 15:36:09;;;;;;;67.57;38.83;;;13.60;91.70;;;;;;5056062;28;20052;-65
2021/12/23 15:39:19;;;;;;;75.85;39.63;;;13.60;91.70;;;;;;5057319;28;20044;-64
2021/12/23 15:42:24;;;;;;;70.75;40.35;;;13.60;91.80;;;;;;5056559;28;20048;-65
2021/12/23 15:45:30;;;;;;;67.50;41.53;;;13.50;91.90;;;;;;5056974;28;20040;-65
2021/12/23 15:48:38;;;;;;;88.60;48.50;;;13.50;92.00;;;;;;5057049;28;20040;-67
2021/12/23 15:51:42;;;;;;;79.93;43.28;;;13.50;92.20;;;;;;5056391;28;20067;-66
2021/12/23 15:54:47;;;;;;;76.88;43.63;;;13.40;92.30;;;;;;5056810;28;20052;-65
2021/12/23 15:57:51;;;;;;;70.82;42.13;;;13.30;92.40;;;;;;5056559;28;20052;-64
2021/12/23 16:00:55;;;;;;;77.90;43.60;;;13.30;92.40;;;;;;5052625;28;20068;-63
2021/12/23 16:04:02;;;;;;;78.47;42.28;;;13.30;92.70;;;;;;5052999;28;20063;-63
2021/12/23 16:07:19;;;;;;;80.80;42.60;;;13.30;92.90;;;;;;5052301;28;20393;-66
2021/12/23 16:10:25;;;;;;;90.25;41.53;;;13.30;93.00;;;;;;5053308;28;20416;-66
2021/12/23 16:13:29;;;;;;;87.18;42.30;;;13.30;93.00;;;;;;5053402;28;20048;-66
2021/12/23 16:16:34;;;;;;;80.43;41.35;;;13.20;92.90;;;;;;5052989;28;20047;-65
2021/12/23 16:19:39;;;;;;;89.47;43.10;;;13.20;92.90;;;;;;5052924;28;20040;-66
2021/12/23 16:22:43;;;;;;;77.28;40.08;;;13.10;93.10;;;;;;5052713;28;20492;-65
2021/12/23 16:25:47;;;;;;;78.80;40.90;;;13.00;93.10;;;;;;5052571;28;20044;-66
2021/12/23 16:28:56;;;;;;;83.00;40.25;;;13.00;93.30;;;;;;5052413;28;20040;-66
2021/12/23 16:32:00;;;;;;;79.47;45.58;;;12.90;93.40;;;;;;5052845;28;20048;-66
2021/12/23 16:35:07;;;;;;;96.22;50.70;;;13.00;93.50;;;;;;5052744;28;20072;-65
2021/12/23 16:38:15;;;;;;;86.60;48.58;;;12.90;93.40;;;;;;5052907;28;20044;-66
2021/12/23 16:41:20;;;;;;;104.35;54.60;;;12.90;93.80;;;;;;5052365;28;20401;-66
2021/12/23 16:44:24;;;;;;;109.90;60.28;;;12.90;93.70;;;;;;5051910;28;20405;-67
2021/12/23 16:47:28;;;;;;;95.38;55.97;;;12.90;93.60;;;;;;5052610;28;20036;-67
2021/12/23 16:50:32;;;;;;;98.85;56.60;;;12.90;93.60;;;;;;5051485;28;20496;-65